sensor_id;sensor_type;location;lat;lon;timestamp;pressure;altitude;pressure_sealevel;temperature;humidity
14383;BME280;7275;50.328;8.720;2023-05-21T00:01:31;99593.25;;;21.22;43.93
14383;BME280;7275;50.328;8.720;2023-05-21T00:03:58;99599.50;;;21.23;43.97
14383;BME280;7275;50.328;8.720;2023-05-21T00:06:26;99594.25;;;21.21;44.05
14383;BME280;7275;50.328;8.720;2023-05-21T00:08:54;99602.31;;;21.21;43.87
14383;BME280;7275;50.328;8.720;2023-05-21T00:11:21;99598.75;;;21.21;43.96
14383;BME280;7275;50.328;8.720;2023-05-21T00:13:49;99589.97;;;21.19;44.09
14383;BME280;7275;50.328;8.720;2023-05-21T00:16:18;99595.34;;;21.19;43.97
14383;BME280;7275;50.328;8.720;2023-05-21T00:18:46;99598.13;;;21.17;44.28
14383;BME280;7275;50.328;8.720;2023-05-21T00:21:15;99588.38;;;21.16;44.12
14383;BME280;7275;50.328;8.720;2023-05-21T00:23:43;99587.53;;;21.16;44.29
14383;BME280;7275;50.328;8.720;2023-05-21T00:26:13;99582.28;;;21.14;44.16
14383;BME280;7275;50.328;8.720;2023-05-21T00:28:40;99584.09;;;21.14;44.41
14383;BME280;7275;50.328;8.720;2023-05-21T00:31:08;99581.56;;;21.12;44.39
14383;BME280;7275;50.328;8.720;2023-05-21T00:33:37;99578.88;;;21.12;44.29
14383;BME280;7275;50.328;8.720;2023-05-21T00:36:05;99579.84;;;21.11;44.14
14383;BME280;7275;50.328;8.720;2023-05-21T00:38:34;99572.75;;;21.10;44.53
14383;BME280;7275;50.328;8.720;2023-05-21T00:41:03;99573.50;;;21.12;44.61
14383;BME280;7275;50.328;8.720;2023-05-21T00:43:31;99571.75;;;21.11;44.40
14383;BME280;7275;50.328;8.720;2023-05-21T00:45:59;99568.13;;;21.12;44.57
14383;BME280;7275;50.328;8.720;2023-05-21T00:48:27;99568.13;;;21.12;44.49
14383;BME280;7275;50.328;8.720;2023-05-21T00:50:56;99569.06;;;21.11;44.54
14383;BME280;7275;50.328;8.720;2023-05-21T00:53:23;99571.03;;;21.09;44.50
14383;BME280;7275;50.328;8.720;2023-05-21T00:55:51;99567.53;;;21.09;44.71
14383;BME280;7275;50.328;8.720;2023-05-21T00:58:18;99559.56;;;21.07;44.78
14383;BME280;7275;50.328;8.720;2023-05-21T01:00:46;99556.88;;;21.07;44.44
14383;BME280;7275;50.328;8.720;2023-05-21T01:03:14;99557.88;;;21.06;44.65
14383;BME280;7275;50.328;8.720;2023-05-21T01:05:42;99547.25;;;21.05;44.79
14383;BME280;7275;50.328;8.720;2023-05-21T01:08:11;99552.72;;;21.03;44.86
14383;BME280;7275;50.328;8.720;2023-05-21T01:10:40;99547.44;;;21.02;44.93
14383;BME280;7275;50.328;8.720;2023-05-21T01:13:08;99545.88;;;20.99;44.85
14383;BME280;7275;50.328;8.720;2023-05-21T01:15:36;99547.44;;;21.02;44.96
14383;BME280;7275;50.328;8.720;2023-05-21T01:18:04;99540.28;;;21.02;44.97
14383;BME280;7275;50.328;8.720;2023-05-21T01:20:32;99536.84;;;21.00;44.99
14383;BME280;7275;50.328;8.720;2023-05-21T01:23:01;99529.75;;;20.99;44.93
14383;BME280;7275;50.328;8.720;2023-05-21T01:25:29;99532.44;;;20.99;45.03
14383;BME280;7275;50.328;8.720;2023-05-21T01:27:57;99540.63;;;20.98;45.06
14383;BME280;7275;50.328;8.720;2023-05-21T01:30:25;99529.00;;;20.97;45.04
14383;BME280;7275;50.328;8.720;2023-05-21T01:32:57;99529.00;;;20.97;44.99
14383;BME280;7275;50.328;8.720;2023-05-21T01:35:30;99514.84;;;20.95;45.09
14383;BME280;7275;50.328;8.720;2023-05-21T01:38:07;99510.47;;;20.94;45.09
14383;BME280;7275;50.328;8.720;2023-05-21T01:40:40;99511.44;;;20.93;44.95
14383;BME280;7275;50.328;8.720;2023-05-21T01:43:10;99518.63;;;20.93;45.19
14383;BME280;7275;50.328;8.720;2023-05-21T01:45:40;99514.13;;;20.93;45.02
14383;BME280;7275;50.328;8.720;2023-05-21T01:48:09;99518.78;;;20.91;45.36
14383;BME280;7275;50.328;8.720;2023-05-21T01:50:39;99516.31;;;20.88;45.21
14383;BME280;7275;50.328;8.720;2023-05-21T01:53:09;99521.69;;;20.88;45.21
14383;BME280;7275;50.328;8.720;2023-05-21T01:55:36;99525.38;;;20.87;45.26
14383;BME280;7275;50.328;8.720;2023-05-21T01:58:07;99524.38;;;20.88;45.36
14383;BME280;7275;50.328;8.720;2023-05-21T02:00:35;99519.00;;;20.88;45.50
14383;BME280;7275;50.328;8.720;2023-05-21T02:03:02;99530.63;;;20.89;45.55
14383;BME280;7275;50.328;8.720;2023-05-21T02:05:30;99525.25;;;20.89;45.32
14383;BME280;7275;50.328;8.720;2023-05-21T02:07:58;99521.69;;;20.88;45.35
14383;BME280;7275;50.328;8.720;2023-05-21T02:10:28;99525.38;;;20.87;45.50
14383;BME280;7275;50.328;8.720;2023-05-21T02:12:55;99513.78;;;20.87;45.48
14383;BME280;7275;50.328;8.720;2023-05-21T02:15:24;99514.63;;;20.87;45.47
14383;BME280;7275;50.328;8.720;2023-05-21T02:17:52;99509.25;;;20.87;45.53
14383;BME280;7275;50.328;8.720;2023-05-21T02:20:22;99502.16;;;20.86;45.33
14383;BME280;7275;50.328;8.720;2023-05-21T02:22:49;99514.03;;;20.84;45.54
14383;BME280;7275;50.328;8.720;2023-05-21T02:25:18;99507.06;;;20.81;45.82
14383;BME280;7275;50.328;8.720;2023-05-21T02:27:49;99510.63;;;20.82;45.69
14383;BME280;7275;50.328;8.720;2023-05-21T02:30:19;99512.44;;;20.81;45.73
14383;BME280;7275;50.328;8.720;2023-05-21T02:32:47;99506.22;;;20.81;45.57
14383;BME280;7275;50.328;8.720;2023-05-21T02:35:16;99508.91;;;20.81;45.82
14383;BME280;7275;50.328;8.720;2023-05-21T02:37:43;99502.66;;;20.80;45.78
14383;BME280;7275;50.328;8.720;2023-05-21T02:40:11;99503.66;;;20.79;45.82
14383;BME280;7275;50.328;8.720;2023-05-21T02:42:39;99504.63;;;20.78;45.96
14383;BME280;7275;50.328;8.720;2023-05-21T02:45:10;99510.00;;;20.78;45.90
14383;BME280;7275;50.328;8.720;2023-05-21T02:47:38;99506.34;;;20.79;45.93
14383;BME280;7275;50.328;8.720;2023-05-21T02:50:07;99511.59;;;20.81;45.76
14383;BME280;7275;50.328;8.720;2023-05-21T02:52:35;99512.44;;;20.81;45.84
14383;BME280;7275;50.328;8.720;2023-05-21T02:55:03;99488.50;;;20.78;45.97
14383;BME280;7275;50.328;8.720;2023-05-21T02:57:30;99511.84;;;20.78;45.93
14383;BME280;7275;50.328;8.720;2023-05-21T02:59:58;99505.63;;;20.77;46.11
14383;BME280;7275;50.328;8.720;2023-05-21T03:02:27;99507.44;;;20.77;46.14
14383;BME280;7275;50.328;8.720;2023-05-21T03:04:55;99494.00;;;20.77;45.97
14383;BME280;7275;50.328;8.720;2023-05-21T03:07:24;99502.22;;;20.75;45.94
14383;BME280;7275;50.328;8.720;2023-05-21T03:09:51;99497.56;;;20.77;46.05
14383;BME280;7275;50.328;8.720;2023-05-21T03:12:19;99507.31;;;20.78;46.10
14383;BME280;7275;50.328;8.720;2023-05-21T03:14:47;99498.53;;;20.76;46.02
14383;BME280;7275;50.328;8.720;2023-05-21T03:17:16;99504.91;;;20.75;46.24
14383;BME280;7275;50.328;8.720;2023-05-21T03:19:45;99503.06;;;20.76;46.33
14383;BME280;7275;50.328;8.720;2023-05-21T03:22:14;99510.00;;;20.78;46.05
14383;BME280;7275;50.328;8.720;2023-05-21T03:24:41;99500.97;;;20.79;46.16
14383;BME280;7275;50.328;8.720;2023-05-21T03:27:10;99504.63;;;20.78;46.26
14383;BME280;7275;50.328;8.720;2023-05-21T03:29:37;99508.31;;;20.77;46.14
14383;BME280;7275;50.328;8.720;2023-05-21T03:32:06;99505.63;;;20.77;46.20
14383;BME280;7275;50.328;8.720;2023-05-21T03:34:34;99493.88;;;20.78;46.33
14383;BME280;7275;50.328;8.720;2023-05-21T03:37:03;99509.28;;;20.76;46.22
14383;BME280;7275;50.328;8.720;2023-05-21T03:39:30;99499.38;;;20.77;46.23
14383;BME280;7275;50.328;8.720;2023-05-21T03:41:58;99501.94;;;20.78;46.23
14383;BME280;7275;50.328;8.720;2023-05-21T03:44:25;99507.31;;;20.78;46.30
14383;BME280;7275;50.328;8.720;2023-05-21T03:46:53;99496.56;;;20.78;46.38
14383;BME280;7275;50.328;8.720;2023-05-21T03:49:21;99498.44;;;20.78;46.22
14383;BME280;7275;50.328;8.720;2023-05-21T03:51:48;99505.63;;;20.77;46.37
14383;BME280;7275;50.328;8.720;2023-05-21T03:54:17;99502.94;;;20.77;46.45
14383;BME280;7275;50.328;8.720;2023-05-21T03:56:45;99498.53;;;20.76;46.37
14383;BME280;7275;50.328;8.720;2023-05-21T03:59:12;99494.00;;;20.77;46.53
14383;BME280;7275;50.328;8.720;2023-05-21T04:01:40;99503.06;;;20.76;46.63
14383;BME280;7275;50.328;8.720;2023-05-21T04:04:07;99509.28;;;20.76;46.50
14383;BME280;7275;50.328;8.720;2023-05-21T04:06:35;99503.81;;;20.78;46.49
14383;BME280;7275;50.328;8.720;2023-05-21T04:09:03;99503.81;;;20.78;46.58
14383;BME280;7275;50.328;8.720;2023-05-21T04:11:32;99505.50;;;20.79;46.58
14383;BME280;7275;50.328;8.720;2023-05-21T04:13:59;99506.22;;;20.81;46.55
14383;BME280;7275;50.328;8.720;2023-05-21T04:16:28;99503.41;;;20.82;46.50
14383;BME280;7275;50.328;8.720;2023-05-21T04:18:55;99499.59;;;20.85;46.56
14383;BME280;7275;50.328;8.720;2023-05-21T04:21:23;99504.97;;;20.85;46.45
14383;BME280;7275;50.328;8.720;2023-05-21T04:23:51;99509.41;;;20.86;46.62
14383;BME280;7275;50.328;8.720;2023-05-21T04:26:19;99508.53;;;20.85;46.69
14383;BME280;7275;50.328;8.720;2023-05-21T04:28:48;99510.22;;;20.86;46.63
14383;BME280;7275;50.328;8.720;2023-05-21T04:31:16;99514.63;;;20.87;46.70
14383;BME280;7275;50.328;8.720;2023-05-21T04:33:44;99515.50;;;20.88;46.77
14383;BME280;7275;50.328;8.720;2023-05-21T04:36:11;99497.50;;;20.88;46.76
14383;BME280;7275;50.328;8.720;2023-05-21T04:38:42;99517.19;;;20.89;46.75
14383;BME280;7275;50.328;8.720;2023-05-21T04:41:09;99517.19;;;20.89;46.82
14383;BME280;7275;50.328;8.720;2023-05-21T04:43:37;99504.59;;;20.89;46.58
14383;BME280;7275;50.328;8.720;2023-05-21T04:46:10;99508.88;;;20.92;46.80
14383;BME280;7275;50.328;8.720;2023-05-21T04:48:38;99509.59;;;20.94;46.79
14383;BME280;7275;50.328;8.720;2023-05-21T04:51:06;99506.66;;;20.97;46.57
14383;BME280;7275;50.328;8.720;2023-05-21T04:53:34;99504.69;;;20.99;46.79
14383;BME280;7275;50.328;8.720;2023-05-21T04:56:01;99507.91;;;21.04;46.65
14383;BME280;7275;50.328;8.720;2023-05-21T04:58:29;99505.78;;;21.07;46.84
14383;BME280;7275;50.328;8.720;2023-05-21T05:00:58;99508.97;;;21.12;46.62
14383;BME280;7275;50.328;8.720;2023-05-21T05:03:29;99501.63;;;21.14;46.57
14383;BME280;7275;50.328;8.720;2023-05-21T05:05:57;99510.41;;;21.16;46.53
14383;BME280;7275;50.328;8.720;2023-05-21T05:08:24;99503.78;;;21.20;46.73
14383;BME280;7275;50.328;8.720;2023-05-21T05:10:52;99507.06;;;21.24;46.88
14383;BME280;7275;50.328;8.720;2023-05-21T05:13:19;99507.56;;;21.29;46.73
14383;BME280;7275;50.328;8.720;2023-05-21T05:15:47;99506.44;;;21.31;46.58
14383;BME280;7275;50.328;8.720;2023-05-21T05:18:16;99505.19;;;21.35;46.65
14383;BME280;7275;50.328;8.720;2023-05-21T05:20:45;99505.91;;;21.37;46.46
14383;BME280;7275;50.328;8.720;2023-05-21T05:23:13;99508.09;;;21.43;46.78
14383;BME280;7275;50.328;8.720;2023-05-21T05:25:41;99503.19;;;21.48;46.55
14383;BME280;7275;50.328;8.720;2023-05-21T05:28:08;99504.34;;;21.56;46.50
14383;BME280;7275;50.328;8.720;2023-05-21T05:30:36;99491.22;;;21.62;46.41
14383;BME280;7275;50.328;8.720;2023-05-21T05:33:04;99506.59;;;21.71;46.44
14383;BME280;7275;50.328;8.720;2023-05-21T05:35:31;99500.53;;;21.79;46.66
14383;BME280;7275;50.328;8.720;2023-05-21T05:38:00;99498.34;;;21.84;46.32
14383;BME280;7275;50.328;8.720;2023-05-21T05:40:28;99499.66;;;21.89;46.55
14383;BME280;7275;50.328;8.720;2023-05-21T05:42:55;99502.66;;;21.96;46.59
14383;BME280;7275;50.328;8.720;2023-05-21T05:45:23;99501.88;;;22.05;46.10
14383;BME280;7275;50.328;8.720;2023-05-21T05:47:52;99508.41;;;22.12;46.14
14383;BME280;7275;50.328;8.720;2023-05-21T05:50:19;99505.78;;;22.21;46.42
14383;BME280;7275;50.328;8.720;2023-05-21T05:52:47;99504.38;;;22.27;45.96
14383;BME280;7275;50.328;8.720;2023-05-21T05:55:16;99502.69;;;22.36;46.07
14383;BME280;7275;50.328;8.720;2023-05-21T05:57:44;99501.16;;;22.43;46.02
14383;BME280;7275;50.328;8.720;2023-05-21T06:00:12;99495.97;;;22.51;45.87
14383;BME280;7275;50.328;8.720;2023-05-21T06:02:40;99503.59;;;22.55;45.67
14383;BME280;7275;50.328;8.720;2023-05-21T06:05:08;99496.16;;;22.59;46.12
14383;BME280;7275;50.328;8.720;2023-05-21T06:07:36;99495.75;;;22.63;45.69
14383;BME280;7275;50.328;8.720;2023-05-21T06:10:05;99499.00;;;22.67;45.72
14383;BME280;7275;50.328;8.720;2023-05-21T06:12:34;99504.69;;;22.73;45.78
14383;BME280;7275;50.328;8.720;2023-05-21T06:15:02;99503.28;;;22.79;45.94
14383;BME280;7275;50.328;8.720;2023-05-21T06:17:30;99507.97;;;22.86;45.55
14383;BME280;7275;50.328;8.720;2023-05-21T06:19:58;99492.09;;;22.93;45.47
14383;BME280;7275;50.328;8.720;2023-05-21T06:22:25;99504.88;;;23.00;45.62
14383;BME280;7275;50.328;8.720;2023-05-21T06:24:53;99508.69;;;23.08;45.69
14383;BME280;7275;50.328;8.720;2023-05-21T06:27:20;99504.47;;;23.15;45.34
14383;BME280;7275;50.328;8.720;2023-05-21T06:29:49;99500.22;;;23.22;45.63
14383;BME280;7275;50.328;8.720;2023-05-21T06:32:17;99503.06;;;23.30;45.51
14383;BME280;7275;50.328;8.720;2023-05-21T06:34:47;99508.78;;;23.36;45.25
14383;BME280;7275;50.328;8.720;2023-05-21T06:37:18;99496.38;;;23.43;45.29
14383;BME280;7275;50.328;8.720;2023-05-21T06:39:46;99496.81;;;23.48;45.31
14383;BME280;7275;50.328;8.720;2023-05-21T06:42:13;99497.38;;;23.52;45.07
14383;BME280;7275;50.328;8.720;2023-05-21T06:44:41;99497.22;;;23.53;45.03
14383;BME280;7275;50.328;8.720;2023-05-21T06:47:10;99500.50;;;23.57;44.90
14383;BME280;7275;50.328;8.720;2023-05-21T06:49:37;99501.06;;;23.60;45.24
14383;BME280;7275;50.328;8.720;2023-05-21T06:52:05;99499.63;;;23.66;45.19
14383;BME280;7275;50.328;8.720;2023-05-21T06:54:33;99494.66;;;23.71;44.79
14383;BME280;7275;50.328;8.720;2023-05-21T06:57:01;99496.63;;;23.78;44.90
14383;BME280;7275;50.328;8.720;2023-05-21T06:59:28;99491.81;;;23.82;45.01
14383;BME280;7275;50.328;8.720;2023-05-21T07:01:56;99497.59;;;23.87;44.82
14383;BME280;7275;50.328;8.720;2023-05-21T07:04:25;99499.44;;;23.96;44.77
14383;BME280;7275;50.328;8.720;2023-05-21T07:06:53;99501.28;;;24.05;44.71
14383;BME280;7275;50.328;8.720;2023-05-21T07:09:20;99496.84;;;24.14;44.76
14383;BME280;7275;50.328;8.720;2023-05-21T07:11:48;99496.66;;;24.25;44.90
14383;BME280;7275;50.328;8.720;2023-05-21T07:14:18;99498.16;;;24.37;44.71
14383;BME280;7275;50.328;8.720;2023-05-21T07:16:45;99487.16;;;24.48;44.59
14383;BME280;7275;50.328;8.720;2023-05-21T07:19:14;99494.94;;;24.60;44.64
14383;BME280;7275;50.328;8.720;2023-05-21T07:21:43;99485.75;;;24.71;44.46
14383;BME280;7275;50.328;8.720;2023-05-21T07:24:10;99499.25;;;24.81;44.28
14383;BME280;7275;50.328;8.720;2023-05-21T07:26:38;99499.31;;;24.89;44.19
14383;BME280;7275;50.328;8.720;2023-05-21T07:29:05;99491.63;;;24.94;43.89
14383;BME280;7275;50.328;8.720;2023-05-21T07:31:33;99490.47;;;24.96;44.05
14383;BME280;7275;50.328;8.720;2023-05-21T07:34:01;99499.66;;;25.03;44.12
14383;BME280;7275;50.328;8.720;2023-05-21T07:36:28;99496.88;;;25.13;44.04
14383;BME280;7275;50.328;8.720;2023-05-21T07:39:00;99494.94;;;25.23;43.79
14383;BME280;7275;50.328;8.720;2023-05-21T07:41:27;99494.66;;;25.26;43.61
14383;BME280;7275;50.328;8.720;2023-05-21T07:43:55;99498.59;;;25.31;43.63
14383;BME280;7275;50.328;8.720;2023-05-21T07:46:23;99490.69;;;25.38;43.59
14383;BME280;7275;50.328;8.720;2023-05-21T07:48:51;99495.69;;;25.43;43.63
14383;BME280;7275;50.328;8.720;2023-05-21T07:51:18;99495.06;;;25.49;43.46
14383;BME280;7275;50.328;8.720;2023-05-21T07:53:46;99491.03;;;25.53;43.37
14383;BME280;7275;50.328;8.720;2023-05-21T07:56:15;99495.28;;;25.55;43.41
14383;BME280;7275;50.328;8.720;2023-05-21T07:58:42;99502.91;;;25.60;43.43
14383;BME280;7275;50.328;8.720;2023-05-21T08:01:11;99490.16;;;25.70;43.50
14383;BME280;7275;50.328;8.720;2023-05-21T08:03:38;99492.59;;;25.81;43.43
14383;BME280;7275;50.328;8.720;2023-05-21T08:06:06;99491.47;;;25.91;43.30
14383;BME280;7275;50.328;8.720;2023-05-21T08:08:34;99481.22;;;26.03;43.22
14383;BME280;7275;50.328;8.720;2023-05-21T08:11:01;99478.81;;;26.18;43.33
14383;BME280;7275;50.328;8.720;2023-05-21T08:13:30;99479.06;;;26.32;43.48
14383;BME280;7275;50.328;8.720;2023-05-21T08:15:58;99478.44;;;26.46;43.41
14383;BME280;7275;50.328;8.720;2023-05-21T08:18:26;99485.06;;;26.60;43.20
14383;BME280;7275;50.328;8.720;2023-05-21T08:20:53;99488.34;;;26.71;43.14
14383;BME280;7275;50.328;8.720;2023-05-21T08:23:21;99486.22;;;26.83;42.88
14383;BME280;7275;50.328;8.720;2023-05-21T08:25:49;99478.78;;;26.93;42.71
14383;BME280;7275;50.328;8.720;2023-05-21T08:28:20;99478.94;;;27.00;42.35
14383;BME280;7275;50.328;8.720;2023-05-21T08:30:49;99477.97;;;27.09;42.27
14383;BME280;7275;50.328;8.720;2023-05-21T08:33:17;99471.53;;;27.18;42.27
14383;BME280;7275;50.328;8.720;2023-05-21T08:35:46;99476.28;;;27.32;42.21
14383;BME280;7275;50.328;8.720;2023-05-21T08:38:14;99473.78;;;27.46;42.58
14383;BME280;7275;50.328;8.720;2023-05-21T08:40:44;99472.91;;;27.62;42.36
14383;BME280;7275;50.328;8.720;2023-05-21T08:43:13;99467.13;;;27.81;41.86
14383;BME280;7275;50.328;8.720;2023-05-21T08:45:44;99460.69;;;27.98;41.65
14383;BME280;7275;50.328;8.720;2023-05-21T08:48:15;99467.78;;;28.15;41.81
14383;BME280;7275;50.328;8.720;2023-05-21T08:50:43;99472.47;;;28.29;41.27
14383;BME280;7275;50.328;8.720;2023-05-21T08:53:12;99474.47;;;28.43;41.54
14383;BME280;7275;50.328;8.720;2023-05-21T08:55:53;99473.94;;;28.56;41.24
14383;BME280;7275;50.328;8.720;2023-05-21T08:58:22;99468.97;;;28.68;40.92
14383;BME280;7275;50.328;8.720;2023-05-21T09:00:50;99468.72;;;28.77;41.09
14383;BME280;7275;50.328;8.720;2023-05-21T09:03:19;99463.06;;;28.87;40.84
14383;BME280;7275;50.328;8.720;2023-05-21T09:05:48;99461.91;;;29.04;40.85
14383;BME280;7275;50.328;8.720;2023-05-21T09:08:18;99463.38;;;29.23;40.52
14383;BME280;7275;50.328;8.720;2023-05-21T09:10:48;99449.09;;;29.43;40.71
14383;BME280;7275;50.328;8.720;2023-05-21T09:13:17;99462.66;;;29.66;40.12
14383;BME280;7275;50.328;8.720;2023-05-21T09:15:45;99459.25;;;29.86;39.95
14383;BME280;7275;50.328;8.720;2023-05-21T09:18:13;99459.56;;;30.06;39.86
14383;BME280;7275;50.328;8.720;2023-05-21T09:20:43;99461.25;;;30.22;39.79
14383;BME280;7275;50.328;8.720;2023-05-21T09:23:11;99449.53;;;30.36;39.30
14383;BME280;7275;50.328;8.720;2023-05-21T09:25:44;99443.78;;;30.45;39.09
14383;BME280;7275;50.328;8.720;2023-05-21T09:28:14;99453.09;;;30.51;38.73
14383;BME280;7275;50.328;8.720;2023-05-21T09:30:46;99449.78;;;30.55;38.75
14383;BME280;7275;50.328;8.720;2023-05-21T09:33:23;99451.19;;;30.66;38.56
14383;BME280;7275;50.328;8.720;2023-05-21T09:35:52;99449.75;;;30.70;38.48
14383;BME280;7275;50.328;8.720;2023-05-21T09:38:21;99447.13;;;30.76;38.53
14383;BME280;7275;50.328;8.720;2023-05-21T09:40:48;99442.56;;;30.84;38.14
14383;BME280;7275;50.328;8.720;2023-05-21T09:43:16;99442.88;;;30.89;38.17
14383;BME280;7275;50.328;8.720;2023-05-21T09:45:50;99441.91;;;30.96;38.17
14383;BME280;7275;50.328;8.720;2023-05-21T09:48:31;99444.69;;;31.03;38.00
14383;BME280;7275;50.328;8.720;2023-05-21T09:51:11;99444.13;;;31.07;37.90
14383;BME280;7275;50.328;8.720;2023-05-21T09:53:45;99442.31;;;31.14;37.99
14383;BME280;7275;50.328;8.720;2023-05-21T09:56:16;99440.03;;;31.18;37.81
14383;BME280;7275;50.328;8.720;2023-05-21T09:58:44;99435.09;;;31.28;38.06
14383;BME280;7275;50.328;8.720;2023-05-21T10:01:12;99440.94;;;31.46;37.88
14383;BME280;7275;50.328;8.720;2023-05-21T10:03:40;99435.72;;;31.72;37.85
14383;BME280;7275;50.328;8.720;2023-05-21T10:06:11;99432.81;;;32.01;37.70
14383;BME280;7275;50.328;8.720;2023-05-21T10:08:43;99434.44;;;32.30;37.26
14383;BME280;7275;50.328;8.720;2023-05-21T10:11:12;99427.88;;;32.59;37.07
14383;BME280;7275;50.328;8.720;2023-05-21T10:13:43;99424.63;;;32.89;37.10
14383;BME280;7275;50.328;8.720;2023-05-21T10:16:14;99421.34;;;33.20;36.59
14383;BME280;7275;50.328;8.720;2023-05-21T10:18:42;99422.81;;;33.49;36.20
14383;BME280;7275;50.328;8.720;2023-05-21T10:21:13;99415.28;;;33.77;35.63
14383;BME280;7275;50.328;8.720;2023-05-21T10:23:42;99405.53;;;34.01;35.77
14383;BME280;7275;50.328;8.720;2023-05-21T10:26:11;99400.22;;;34.25;35.58
14383;BME280;7275;50.328;8.720;2023-05-21T10:28:39;99409.63;;;34.49;34.82
14383;BME280;7275;50.328;8.720;2023-05-21T10:31:07;99396.44;;;34.71;35.22
14383;BME280;7275;50.328;8.720;2023-05-21T10:33:36;99409.41;;;34.95;34.31
14383;BME280;7275;50.328;8.720;2023-05-21T10:36:04;99404.69;;;35.15;34.02
14383;BME280;7275;50.328;8.720;2023-05-21T10:38:34;99398.81;;;35.36;34.56
14383;BME280;7275;50.328;8.720;2023-05-21T10:41:02;99390.41;;;35.56;33.55
14383;BME280;7275;50.328;8.720;2023-05-21T10:43:43;99391.81;;;35.65;33.18
14383;BME280;7275;50.328;8.720;2023-05-21T10:46:28;99393.13;;;35.80;33.15
14383;BME280;7275;50.328;8.720;2023-05-21T10:49:10;99392.06;;;36.06;32.99
14383;BME280;7275;50.328;8.720;2023-05-21T10:51:50;99388.25;;;36.25;32.63
14383;BME280;7275;50.328;8.720;2023-05-21T10:57:30;99378.63;;;36.52;31.96
14383;BME280;7275;50.328;8.720;2023-05-21T11:00:01;99386.72;;;36.65;31.78
14383;BME280;7275;50.328;8.720;2023-05-21T11:02:30;99377.88;;;36.75;31.54
14383;BME280;7275;50.328;8.720;2023-05-21T11:04:59;99375.63;;;36.83;31.60
14383;BME280;7275;50.328;8.720;2023-05-21T11:07:51;99373.25;;;36.87;31.05
14383;BME280;7275;50.328;8.720;2023-05-21T11:10:41;99380.06;;;36.84;31.08
14383;BME280;7275;50.328;8.720;2023-05-21T11:13:12;99379.00;;;36.85;29.79
14383;BME280;7275;50.328;8.720;2023-05-21T11:16:05;99380.38;;;36.76;29.98
14383;BME280;7275;50.328;8.720;2023-05-21T11:18:56;99383.75;;;36.78;29.90
14383;BME280;7275;50.328;8.720;2023-05-21T11:21:27;99381.69;;;36.92;29.16
14383;BME280;7275;50.328;8.720;2023-05-21T11:23:59;99377.91;;;37.05;28.71
14383;BME280;7275;50.328;8.720;2023-05-21T11:26:59;99378.28;;;37.20;29.19
14383;BME280;7275;50.328;8.720;2023-05-21T11:29:40;99374.72;;;37.31;28.81
14383;BME280;7275;50.328;8.720;2023-05-21T11:32:11;99367.91;;;37.45;28.14
14383;BME280;7275;50.328;8.720;2023-05-21T11:34:40;99377.53;;;37.54;27.91
14383;BME280;7275;50.328;8.720;2023-05-21T11:37:34;99375.38;;;37.56;28.07
14383;BME280;7275;50.328;8.720;2023-05-21T11:40:16;99370.47;;;37.46;27.66
14383;BME280;7275;50.328;8.720;2023-05-21T11:42:49;99373.78;;;37.37;27.15
14383;BME280;7275;50.328;8.720;2023-05-21T11:45:18;99375.81;;;37.30;27.04
14383;BME280;7275;50.328;8.720;2023-05-21T11:47:46;99376.03;;;37.28;27.18
14383;BME280;7275;50.328;8.720;2023-05-21T11:50:15;99377.22;;;37.32;27.09
14383;BME280;7275;50.328;8.720;2023-05-21T11:52:44;99378.25;;;37.38;27.12
14383;BME280;7275;50.328;8.720;2023-05-21T11:55:11;99378.00;;;37.39;26.79
14383;BME280;7275;50.328;8.720;2023-05-21T11:57:41;99370.06;;;37.43;26.93
14383;BME280;7275;50.328;8.720;2023-05-21T12:00:15;99367.91;;;37.45;26.43
14383;BME280;7275;50.328;8.720;2023-05-21T12:02:47;99369.00;;;37.44;26.70
14383;BME280;7275;50.328;8.720;2023-05-21T12:05:15;99374.78;;;37.42;26.50
14383;BME280;7275;50.328;8.720;2023-05-21T12:07:45;99372.03;;;37.42;26.56
14383;BME280;7275;50.328;8.720;2023-05-21T12:10:15;99375.50;;;37.49;26.21
14383;BME280;7275;50.328;8.720;2023-05-21T12:12:46;99368.56;;;37.58;26.25
14383;BME280;7275;50.328;8.720;2023-05-21T12:15:25;99373.09;;;37.64;25.99
14383;BME280;7275;50.328;8.720;2023-05-21T12:17:53;99362.41;;;37.68;25.89
14383;BME280;7275;50.328;8.720;2023-05-21T12:20:22;99363.75;;;37.77;25.63
14383;BME280;7275;50.328;8.720;2023-05-21T12:22:52;99362.91;;;37.77;25.83
14383;BME280;7275;50.328;8.720;2023-05-21T12:25:19;99361.34;;;37.69;25.49
14383;BME280;7275;50.328;8.720;2023-05-21T12:27:47;99369.00;;;37.55;25.78
14383;BME280;7275;50.328;8.720;2023-05-21T12:30:18;99367.47;;;37.48;25.71
14383;BME280;7275;50.328;8.720;2023-05-21T12:32:47;99366.16;;;37.50;25.45
14383;BME280;7275;50.328;8.720;2023-05-21T12:35:22;99368.41;;;37.53;25.64
14383;BME280;7275;50.328;8.720;2023-05-21T12:37:50;99370.22;;;37.59;25.48
14383;BME280;7275;50.328;8.720;2023-05-21T12:40:18;99370.00;;;37.61;25.42
14383;BME280;7275;50.328;8.720;2023-05-21T12:42:46;99362.31;;;37.63;25.37
14383;BME280;7275;50.328;8.720;2023-05-21T12:45:15;99364.97;;;37.70;25.69
14383;BME280;7275;50.328;8.720;2023-05-21T12:47:47;99361.25;;;37.87;25.57
14383;BME280;7275;50.328;8.720;2023-05-21T12:50:21;99358.59;;;38.15;25.01
14383;BME280;7275;50.328;8.720;2023-05-21T12:52:52;99358.44;;;38.33;25.08
14383;BME280;7275;50.328;8.720;2023-05-21T12:55:21;99357.19;;;38.41;24.71
14383;BME280;7275;50.328;8.720;2023-05-21T12:57:49;99366.00;;;38.38;24.84
14383;BME280;7275;50.328;8.720;2023-05-21T13:00:22;99360.56;;;38.43;24.68
14383;BME280;7275;50.328;8.720;2023-05-21T13:02:51;99353.78;;;38.62;24.58
14383;BME280;7275;50.328;8.720;2023-05-21T13:05:19;99353.44;;;38.87;24.25
14383;BME280;7275;50.328;8.720;2023-05-21T13:07:46;99352.06;;;39.01;24.11
14383;BME280;7275;50.328;8.720;2023-05-21T13:10:17;99345.34;;;38.97;23.82
14383;BME280;7275;50.328;8.720;2023-05-21T13:12:45;99352.84;;;38.85;23.67
14383;BME280;7275;50.328;8.720;2023-05-21T13:15:13;99343.09;;;38.66;23.52
14383;BME280;7275;50.328;8.720;2023-05-21T13:17:40;99347.44;;;38.50;23.57
14383;BME280;7275;50.328;8.720;2023-05-21T13:20:11;99343.06;;;38.37;23.67
14383;BME280;7275;50.328;8.720;2023-05-21T13:22:39;99338.38;;;38.38;23.68
14383;BME280;7275;50.328;8.720;2023-05-21T13:25:09;99344.28;;;38.30;23.87